createdAt,value
2023-02-15T00:00:44.595Z,76.78
2023-02-15T00:03:11.615Z,76.18
2023-02-15T00:05:38.039Z,76.27
2023-02-15T00:08:04.579Z,77.37
2023-02-15T00:10:31.051Z,76.73
2023-02-15T00:12:57.411Z,76.10
2023-02-15T00:15:23.759Z,76.17
2023-02-15T00:17:50.194Z,76.35
2023-02-15T00:20:16.709Z,75.85
2023-02-15T00:22:43.499Z,77.41
2023-02-15T00:25:09.899Z,76.33
2023-02-15T00:27:36.472Z,76.96
2023-02-15T00:30:03.122Z,76.60
2023-02-15T00:32:29.757Z,77.23
2023-02-15T00:34:56.162Z,77.78
2023-02-15T00:37:22.580Z,78.58
2023-02-15T00:39:49.094Z,78.83
2023-02-15T00:42:15.490Z,78.34
2023-02-15T00:44:41.957Z,77.79
2023-02-15T00:47:08.407Z,77.33
2023-02-15T00:49:34.844Z,77.81
2023-02-15T00:52:01.372Z,77.41
2023-02-15T00:54:27.917Z,78.08
2023-02-15T00:56:54.415Z,77.50
2023-02-15T00:59:20.870Z,77.22
2023-02-15T01:01:47.302Z,78.02
2023-02-15T01:04:13.887Z,77.74
2023-02-15T01:06:40.347Z,77.38
2023-02-15T01:09:06.826Z,77.68
2023-02-15T01:11:33.205Z,77.81
2023-02-15T01:13:59.649Z,77.52
2023-02-15T01:16:27.483Z,78.64
2023-02-15T01:18:55.821Z,78.21
2023-02-15T01:21:23.905Z,79.02
2023-02-15T01:23:50.586Z,78.78
2023-02-15T01:26:17.568Z,78.40
2023-02-15T01:28:44.156Z,78.35
2023-02-15T01:31:15.555Z,77.39
2023-02-15T01:33:44.936Z,77.76
2023-02-15T01:36:11.731Z,77.69
2023-02-15T01:38:38.210Z,77.64
2023-02-15T01:41:23.488Z,77.77
2023-02-15T01:43:51.326Z,78.83
2023-02-15T01:46:19.902Z,78.56
2023-02-15T01:48:48.886Z,79.04
2023-02-15T01:51:16.981Z,78.66
2023-02-15T01:53:53.001Z,79.66
2023-02-15T01:56:22.015Z,79.65
2023-02-15T01:58:48.693Z,78.81
2023-02-15T02:01:15.191Z,79.00
2023-02-15T02:03:44.411Z,79.14
2023-02-15T02:06:11.384Z,78.99
2023-02-15T02:08:38.459Z,79.17
2023-02-15T02:11:10.416Z,78.94
2023-02-15T02:13:37.022Z,79.14
2023-02-15T02:16:23.909Z,79.07
2023-02-15T02:19:09.559Z,78.74
2023-02-15T02:21:58.680Z,79.54
2023-02-15T02:24:40.102Z,80.33
2023-02-15T02:27:12.888Z,80.23
2023-02-15T02:29:41.985Z,79.87
2023-02-15T02:32:23.897Z,80.40
2023-02-15T02:35:04.659Z,79.84
2023-02-15T02:37:36.917Z,80.94
2023-02-15T02:40:14.374Z,80.08
2023-02-15T02:42:42.540Z,80.02
2023-02-15T02:45:10.263Z,80.03
2023-02-15T02:47:48.418Z,80.07
2023-02-15T02:50:16.764Z,79.43
2023-02-15T02:52:44.977Z,79.63
2023-02-15T02:55:14.094Z,79.92
2023-02-15T02:57:43.238Z,79.50
2023-02-15T03:00:10.105Z,80.17
2023-02-15T03:02:39.675Z,79.69
2023-02-15T03:05:10.223Z,81.71
2023-02-15T03:07:37.017Z,81.72
2023-02-15T03:10:05.885Z,81.42
2023-02-15T03:12:33.678Z,81.04
2023-02-15T03:15:00.130Z,80.72
2023-02-15T03:17:28.331Z,80.86
2023-02-15T03:19:56.858Z,80.55
2023-02-15T03:22:30.068Z,80.00
2023-02-15T03:24:56.460Z,80.13
2023-02-15T03:27:25.558Z,79.65
2023-02-15T03:29:54.582Z,79.28
2023-02-15T03:32:21.860Z,80.17
2023-02-15T03:34:48.411Z,80.42
2023-02-15T03:37:19.571Z,79.76
2023-02-15T03:39:48.511Z,80.35
2023-02-15T03:42:18.443Z,80.43
2023-02-15T03:44:51.950Z,80.32
2023-02-15T03:47:20.686Z,80.13
2023-02-15T03:50:02.799Z,80.11
2023-02-15T03:52:30.558Z,80.28
2023-02-15T03:54:57.023Z,79.98
2023-02-15T03:57:43.787Z,79.79
2023-02-15T04:00:38.590Z,79.73
2023-02-15T04:03:12.129Z,79.49
2023-02-15T04:05:38.878Z,79.51
2023-02-15T04:08:05.604Z,79.06
2023-02-15T04:10:50.502Z,79.21
2023-02-15T04:13:16.923Z,79.41
2023-02-15T04:16:05.214Z,79.49
2023-02-15T04:18:50.897Z,79.38
2023-02-15T04:21:35.810Z,79.48
2023-02-15T04:24:20.964Z,79.10
2023-02-15T04:26:50.676Z,79.24
2023-02-15T04:29:17.031Z,79.15
2023-02-15T04:31:43.960Z,79.22
2023-02-15T04:34:11.456Z,79.69
2023-02-15T04:36:38.339Z,79.47
2023-02-15T04:39:04.875Z,79.50
2023-02-15T04:41:31.244Z,79.76
2023-02-15T04:43:58.305Z,79.23
2023-02-15T04:46:24.725Z,79.31
2023-02-15T04:48:51.106Z,79.22
2023-02-15T04:51:17.457Z,79.34
2023-02-15T04:53:43.814Z,79.12
2023-02-15T04:56:10.178Z,79.67
2023-02-15T04:58:37.854Z,79.18
2023-02-15T05:01:04.314Z,79.60
2023-02-15T05:03:30.642Z,79.94
2023-02-15T05:05:57.056Z,79.65
2023-02-15T05:08:23.694Z,79.57
2023-02-15T05:10:50.391Z,80.29
2023-02-15T05:13:16.780Z,79.93
2023-02-15T05:15:47.205Z,80.66
2023-02-15T05:18:13.647Z,80.49
2023-02-15T05:20:40.043Z,80.45
2023-02-15T05:23:06.463Z,80.49
2023-02-15T05:25:51.433Z,79.80
2023-02-15T05:28:20.750Z,79.83
2023-02-15T05:31:02.697Z,80.12
2023-02-15T05:33:29.070Z,80.75
2023-02-15T05:35:55.475Z,81.72
2023-02-15T05:38:21.823Z,84.49
2023-02-15T05:40:50.108Z,85.20
2023-02-15T05:43:16.666Z,85.86
2023-02-15T05:45:49.535Z,84.53
2023-02-15T05:48:16.215Z,85.56
2023-02-15T05:50:42.606Z,85.02
2023-02-15T05:53:08.946Z,85.23
2023-02-15T05:55:37.826Z,84.02
2023-02-15T05:58:04.189Z,83.73
2023-02-15T06:00:30.565Z,82.97
2023-02-15T06:02:57.255Z,82.67
2023-02-15T06:05:23.924Z,82.74
2023-02-15T06:07:50.309Z,82.19
2023-02-15T06:10:16.755Z,82.43
2023-02-15T06:12:44.389Z,82.22
2023-02-15T06:15:10.810Z,81.65
2023-02-15T06:17:37.172Z,81.31
2023-02-15T06:20:04.034Z,81.22
2023-02-15T06:22:30.461Z,82.00
2023-02-15T06:24:56.856Z,83.90
2023-02-15T06:27:23.337Z,85.28
2023-02-15T06:29:49.792Z,84.55
2023-02-15T06:32:16.134Z,84.17
2023-02-15T06:34:42.607Z,83.32
2023-02-15T06:37:12.140Z,83.42
2023-02-15T06:39:38.851Z,84.76
2023-02-15T06:42:08.029Z,85.79
2023-02-15T06:44:34.571Z,86.04
2023-02-15T06:47:00.891Z,86.33
2023-02-15T06:49:27.273Z,86.58
2023-02-15T06:51:53.588Z,86.09
2023-02-15T06:54:19.949Z,86.86
2023-02-15T06:56:46.355Z,86.27
2023-02-15T06:59:12.793Z,85.86
2023-02-15T07:01:39.312Z,85.00
2023-02-15T07:04:05.891Z,84.83
2023-02-15T07:06:34.053Z,83.66
2023-02-15T07:09:00.999Z,84.52
2023-02-15T07:11:46.153Z,86.19
2023-02-15T07:14:12.672Z,85.45
2023-02-15T07:16:39.188Z,86.17
2023-02-15T07:19:05.618Z,84.51
2023-02-15T07:21:32.049Z,86.30
2023-02-15T07:23:58.686Z,86.93
2023-02-15T07:26:25.195Z,85.24
2023-02-15T07:28:51.690Z,85.43
2023-02-15T07:31:18.130Z,85.17
2023-02-15T07:33:44.618Z,84.17
2023-02-15T07:36:12.980Z,83.97
2023-02-15T07:38:40.678Z,84.85
2023-02-15T07:41:08.692Z,82.81
2023-02-15T07:43:36.916Z,83.49
2023-02-15T07:46:05.271Z,82.84
2023-02-15T07:48:32.029Z,83.20
2023-02-15T07:51:02.534Z,82.45
2023-02-15T07:53:29.159Z,81.18
2023-02-15T07:55:56.055Z,80.92
2023-02-15T07:58:42.370Z,81.59
2023-02-15T08:01:09.470Z,82.73
2023-02-15T08:03:35.928Z,82.35
2023-02-15T08:06:02.733Z,82.12
2023-02-15T08:08:32.337Z,83.01
2023-02-15T08:11:24.934Z,82.70
2023-02-15T08:13:55.504Z,82.63
2023-02-15T08:16:26.083Z,82.58
2023-02-15T08:18:53.175Z,82.24
2023-02-15T08:21:20.214Z,81.83
2023-02-15T08:23:46.796Z,80.83
2023-02-15T08:26:13.527Z,81.02
2023-02-15T08:28:40.755Z,80.22
2023-02-15T08:31:08.590Z,80.46
2023-02-15T08:33:35.861Z,80.38
2023-02-15T08:36:06.252Z,80.35
2023-02-15T08:38:33.639Z,80.24
2023-02-15T08:41:10.383Z,79.65
2023-02-15T08:43:36.826Z,79.41
2023-02-15T08:46:03.252Z,79.43
2023-02-15T08:48:29.686Z,79.30
2023-02-15T08:50:56.108Z,78.76
2023-02-15T08:53:22.639Z,78.86
2023-02-15T08:55:55.987Z,79.00
2023-02-15T08:58:22.322Z,78.24
2023-02-15T09:00:48.827Z,78.94
2023-02-15T09:03:15.273Z,78.83
2023-02-15T09:05:41.643Z,78.76
2023-02-15T09:08:07.955Z,78.21
2023-02-15T09:10:34.395Z,77.92
2023-02-15T09:13:00.685Z,76.94
2023-02-15T09:15:27.116Z,77.46
2023-02-15T09:17:53.837Z,75.64
2023-02-15T09:20:20.214Z,75.53
2023-02-15T09:22:46.593Z,74.34
2023-02-15T09:25:14.519Z,74.46
2023-02-15T09:27:42.067Z,74.59
2023-02-15T09:30:08.832Z,74.66
2023-02-15T09:32:35.359Z,73.18
2023-02-15T09:35:01.672Z,73.01
2023-02-15T09:37:28.121Z,73.89
2023-02-15T09:39:55.518Z,72.75
2023-02-15T09:42:21.888Z,72.16
2023-02-15T09:44:54.125Z,72.40
2023-02-15T09:47:33.018Z,71.83
2023-02-15T09:50:17.292Z,71.41
2023-02-15T09:53:02.265Z,69.74
2023-02-15T09:55:36.107Z,68.23
2023-02-15T09:58:03.475Z,67.11
2023-02-15T10:00:35.763Z,69.02
2023-02-15T10:03:20.773Z,69.38
2023-02-15T10:05:50.290Z,65.81
2023-02-15T10:08:16.590Z,67.01
2023-02-15T10:10:45.941Z,65.32
2023-02-15T10:13:33.184Z,65.31
2023-02-15T10:16:06.838Z,63.83
2023-02-15T10:18:52.108Z,62.85
2023-02-15T10:21:36.134Z,64.09
2023-02-15T10:24:08.618Z,64.28
2023-02-15T10:26:45.500Z,61.17
2023-02-15T10:29:24.075Z,62.74
2023-02-15T10:31:53.133Z,60.46
2023-02-15T10:34:38.422Z,60.96
2023-02-15T10:37:11.204Z,60.08
2023-02-15T10:39:37.530Z,60.23
2023-02-15T10:42:13.088Z,59.19
2023-02-15T10:44:42.563Z,60.43
2023-02-15T10:47:25.912Z,59.10
2023-02-15T10:49:52.200Z,57.15
2023-02-15T10:52:31.535Z,59.18
2023-02-15T10:54:57.884Z,54.92
2023-02-15T10:57:24.205Z,57.78
2023-02-15T11:00:00.540Z,54.02
2023-02-15T11:02:46.544Z,55.70
2023-02-15T11:05:30.442Z,55.53
2023-02-15T11:07:58.535Z,54.84
2023-02-15T11:10:34.081Z,52.94
2023-02-15T11:13:04.856Z,55.02
2023-02-15T11:15:35.344Z,53.85
2023-02-15T11:18:14.934Z,51.14
2023-02-15T11:20:50.344Z,50.19
2023-02-15T11:23:17.308Z,50.26
2023-02-15T11:25:47.977Z,51.51
2023-02-15T11:28:23.566Z,49.19
2023-02-15T11:30:53.097Z,50.36
2023-02-15T11:33:23.322Z,48.20
2023-02-15T11:35:53.321Z,48.59
2023-02-15T11:38:22.001Z,50.07
2023-02-15T11:40:50.242Z,49.04
2023-02-15T11:43:32.180Z,48.48
2023-02-15T11:45:58.733Z,47.52
2023-02-15T11:48:25.142Z,47.12
2023-02-15T11:50:51.449Z,46.50
2023-02-15T11:53:22.675Z,45.16
2023-02-15T11:55:49.883Z,45.12
2023-02-15T11:58:29.086Z,44.41
2023-02-15T12:01:18.602Z,43.42
2023-02-15T12:03:49.720Z,44.22
2023-02-15T12:06:20.178Z,43.21
2023-02-15T12:08:50.509Z,43.39
2023-02-15T12:11:19.242Z,42.20
2023-02-15T12:13:56.377Z,43.83
2023-02-15T12:16:23.155Z,42.31
2023-02-15T12:18:49.661Z,44.95
2023-02-15T12:21:24.740Z,45.84
2023-02-15T12:23:52.865Z,45.15
2023-02-15T12:26:30.042Z,45.91
2023-02-15T12:28:59.467Z,45.71
2023-02-15T12:31:28.207Z,43.79
2023-02-15T12:33:55.958Z,45.44
2023-02-15T12:36:24.444Z,44.46
2023-02-15T12:39:05.268Z,45.20
2023-02-15T12:41:31.691Z,45.87
2023-02-15T12:44:19.433Z,45.83
2023-02-15T12:46:57.939Z,44.91
2023-02-15T12:49:24.591Z,46.38
2023-02-15T12:51:55.849Z,46.27
2023-02-15T12:54:25.330Z,45.76
2023-02-15T12:56:52.705Z,46.03
2023-02-15T12:59:23.618Z,45.18
2023-02-15T13:01:51.654Z,46.54
2023-02-15T13:04:21.106Z,47.19
2023-02-15T13:06:49.556Z,46.37
2023-02-15T13:09:17.956Z,47.68
2023-02-15T13:11:45.494Z,47.67
2023-02-15T13:14:19.442Z,46.76
2023-02-15T13:16:47.844Z,47.10
2023-02-15T13:19:19.433Z,46.00
2023-02-15T13:21:47.315Z,45.55
2023-02-15T13:24:27.760Z,44.56
2023-02-15T13:27:09.363Z,44.39
2023-02-15T13:29:43.798Z,44.19
2023-02-15T13:32:22.399Z,44.35
2023-02-15T13:34:49.353Z,43.89
2023-02-15T13:37:38.352Z,44.32
2023-02-15T13:40:04.788Z,43.66
2023-02-15T13:42:37.113Z,44.56
2023-02-15T13:45:06.381Z,44.11
2023-02-15T13:47:45.080Z,44.88
2023-02-15T13:50:20.758Z,43.94
2023-02-15T13:52:50.143Z,45.09
2023-02-15T13:55:16.503Z,45.21
2023-02-15T13:57:57.243Z,45.77
2023-02-15T14:00:29.604Z,45.64
2023-02-15T14:03:02.101Z,46.19
2023-02-15T14:05:31.784Z,46.21
2023-02-15T14:07:58.431Z,45.73
2023-02-15T14:10:37.050Z,45.57
2023-02-15T14:13:17.529Z,46.08
2023-02-15T14:15:49.810Z,46.11
2023-02-15T14:18:24.369Z,46.48
2023-02-15T14:21:09.563Z,46.92
2023-02-15T14:23:37.151Z,46.89
2023-02-15T14:26:07.424Z,47.32
2023-02-15T14:28:47.678Z,47.76
2023-02-15T14:31:15.787Z,47.98
2023-02-15T14:33:48.014Z,48.80
2023-02-15T14:36:17.687Z,49.41
2023-02-15T14:38:57.393Z,49.54
2023-02-15T14:41:23.822Z,49.00
2023-02-15T14:44:09.538Z,49.97
2023-02-15T14:46:35.859Z,50.42
2023-02-15T14:49:02.281Z,50.39
2023-02-15T14:51:40.813Z,50.67
2023-02-15T14:54:08.326Z,50.72
2023-02-15T14:56:34.679Z,50.81
2023-02-15T14:59:09.987Z,50.46
2023-02-15T15:01:37.296Z,51.19
2023-02-15T15:04:09.796Z,50.98
2023-02-15T15:06:38.032Z,51.29
2023-02-15T15:09:23.089Z,51.26
2023-02-15T15:11:50.763Z,51.64
2023-02-15T15:14:32.492Z,52.55
2023-02-15T15:17:02.940Z,52.66
2023-02-15T15:19:51.965Z,52.77
2023-02-15T15:22:20.064Z,53.00
2023-02-15T15:24:47.254Z,52.85
2023-02-15T15:27:32.419Z,53.16
2023-02-15T15:29:58.767Z,53.77
2023-02-15T15:32:28.247Z,54.38
2023-02-15T15:35:12.745Z,54.82
2023-02-15T15:38:04.190Z,54.78
2023-02-15T15:40:50.911Z,54.80
2023-02-15T15:43:37.171Z,55.37
2023-02-15T15:46:09.917Z,55.98
2023-02-15T15:48:38.968Z,55.99
2023-02-15T15:51:10.934Z,56.07
2023-02-15T15:53:43.215Z,56.03
2023-02-15T15:56:12.763Z,56.30
2023-02-15T15:58:42.727Z,56.10
2023-02-15T16:01:10.109Z,56.92
2023-02-15T16:03:36.749Z,56.64
2023-02-15T16:06:03.544Z,57.14
2023-02-15T16:08:35.217Z,57.34
2023-02-15T16:11:08.930Z,57.15
2023-02-15T16:13:35.417Z,58.00
2023-02-15T16:16:05.253Z,58.00
2023-02-15T16:18:33.116Z,58.88
2023-02-15T16:21:00.762Z,59.29
2023-02-15T16:23:39.427Z,59.56
2023-02-15T16:26:14.965Z,59.50
2023-02-15T16:28:48.276Z,59.55
2023-02-15T16:31:15.764Z,60.07
2023-02-15T16:33:43.506Z,59.06
2023-02-15T16:36:20.550Z,59.03
2023-02-15T16:38:46.909Z,59.10
2023-02-15T16:41:16.408Z,59.20
2023-02-15T16:43:44.683Z,60.02
2023-02-15T16:46:12.411Z,59.95
2023-02-15T16:48:44.077Z,59.66
2023-02-15T16:51:10.732Z,58.91
2023-02-15T16:53:37.381Z,58.71
2023-02-15T16:56:05.455Z,57.96
2023-02-15T16:58:41.509Z,58.13
2023-02-15T17:01:10.105Z,57.52
2023-02-15T17:03:37.147Z,57.77
2023-02-15T17:06:04.904Z,57.72
2023-02-15T17:08:35.416Z,57.53
2023-02-15T17:11:22.044Z,56.94
2023-02-15T17:14:04.088Z,57.35
2023-02-15T17:16:34.389Z,57.23
2023-02-15T17:19:10.301Z,57.09
2023-02-15T17:21:41.216Z,57.92
2023-02-15T17:24:16.546Z,57.84
2023-02-15T17:26:42.981Z,57.93
2023-02-15T17:29:21.108Z,58.04
2023-02-15T17:31:49.784Z,58.30
2023-02-15T17:34:36.195Z,57.80
2023-02-15T17:37:03.325Z,58.38
2023-02-15T17:39:29.749Z,58.19
2023-02-15T17:41:56.209Z,58.55
2023-02-15T17:44:23.247Z,58.13
2023-02-15T17:46:49.701Z,58.41
2023-02-15T17:49:23.609Z,58.28
2023-02-15T17:51:50.159Z,58.31
2023-02-15T17:54:35.617Z,58.37
2023-02-15T17:57:05.626Z,58.70
2023-02-15T17:59:32.107Z,59.01
2023-02-15T18:02:17.294Z,59.32
2023-02-15T18:05:02.224Z,59.32
2023-02-15T18:07:48.049Z,59.31
2023-02-15T18:10:33.871Z,59.03
2023-02-15T18:13:00.198Z,59.24
2023-02-15T18:15:26.987Z,59.26
2023-02-15T18:17:54.262Z,60.16
2023-02-15T18:20:25.059Z,59.93
2023-02-15T18:22:52.454Z,59.98
2023-02-15T18:25:20.039Z,60.12
2023-02-15T18:27:46.777Z,60.38
2023-02-15T18:30:18.050Z,60.00
2023-02-15T18:32:46.234Z,60.09
2023-02-15T18:35:16.965Z,60.11
2023-02-15T18:37:43.561Z,60.49
2023-02-15T18:40:15.311Z,60.52
2023-02-15T18:42:46.934Z,60.27
2023-02-15T18:45:19.773Z,60.37
2023-02-15T18:47:46.641Z,60.25
2023-02-15T18:50:14.107Z,60.75
2023-02-15T18:52:40.714Z,60.78
2023-02-15T18:55:16.477Z,60.43
2023-02-15T18:57:44.872Z,61.06
2023-02-15T19:00:22.229Z,61.45
2023-02-15T19:02:49.004Z,61.23
2023-02-15T19:05:16.270Z,61.49
2023-02-15T19:07:45.378Z,61.49
2023-02-15T19:10:15.841Z,61.76
2023-02-15T19:12:42.266Z,61.94
2023-02-15T19:15:19.308Z,61.62
2023-02-15T19:17:45.911Z,61.79
2023-02-15T19:20:16.895Z,61.78
2023-02-15T19:22:43.481Z,61.96
2023-02-15T19:25:13.937Z,62.38
2023-02-15T19:27:40.405Z,62.10
2023-02-15T19:30:22.897Z,62.43
2023-02-15T19:32:50.577Z,63.07
2023-02-15T19:35:20.036Z,62.55
2023-02-15T19:37:49.869Z,62.87
2023-02-15T19:40:19.524Z,62.53
2023-02-15T19:42:46.078Z,62.65
2023-02-15T19:45:20.377Z,62.96
2023-02-15T19:47:48.201Z,63.24
2023-02-15T19:50:15.891Z,62.89
2023-02-15T19:52:42.547Z,63.29
2023-02-15T19:55:25.747Z,62.69
2023-02-15T19:57:53.316Z,63.25
2023-02-15T20:00:22.688Z,63.08
2023-02-15T20:02:49.692Z,63.09
2023-02-15T20:05:16.286Z,63.16
2023-02-15T20:07:46.954Z,63.21
2023-02-15T20:10:27.960Z,63.41
2023-02-15T20:12:55.446Z,63.42
2023-02-15T20:15:23.577Z,63.58
2023-02-15T20:17:50.371Z,63.58
2023-02-15T20:20:18.421Z,64.01
2023-02-15T20:22:46.413Z,63.66
2023-02-15T20:25:25.487Z,63.13
2023-02-15T20:27:51.999Z,63.33
2023-02-15T20:30:26.407Z,63.45
2023-02-15T20:32:52.840Z,63.44
2023-02-15T20:35:20.301Z,63.33
2023-02-15T20:37:47.600Z,63.16
2023-02-15T20:40:15.806Z,63.42
2023-02-15T20:42:42.297Z,63.83
2023-02-15T20:45:21.984Z,63.40
2023-02-15T20:47:49.390Z,63.42
2023-02-15T20:50:17.298Z,63.13
2023-02-15T20:52:43.813Z,63.44
2023-02-15T20:55:14.160Z,63.31
2023-02-15T20:57:40.577Z,63.26
2023-02-15T21:00:12.438Z,63.13
2023-02-15T21:02:39.041Z,63.35
2023-02-15T21:05:16.048Z,63.33
2023-02-15T21:07:42.705Z,63.33
2023-02-15T21:10:13.753Z,63.51
2023-02-15T21:12:40.457Z,63.29
2023-02-15T21:15:25.641Z,63.41
2023-02-15T21:17:52.020Z,63.30
2023-02-15T21:20:18.601Z,63.25
2023-02-15T21:22:45.060Z,63.67
2023-02-15T21:25:30.308Z,63.68
2023-02-15T21:27:56.766Z,63.47
2023-02-15T21:30:24.365Z,63.37
2023-02-15T21:32:50.915Z,63.30
2023-02-15T21:35:17.730Z,63.08
2023-02-15T21:37:45.044Z,63.14
2023-02-15T21:40:26.317Z,63.34
2023-02-15T21:43:11.627Z,63.26
2023-02-15T21:45:56.937Z,63.40
2023-02-15T21:48:23.406Z,63.42
2023-02-15T21:51:08.582Z,63.48
2023-02-15T21:53:36.544Z,63.61
2023-02-15T21:56:04.731Z,63.47
2023-02-15T21:58:32.914Z,63.45
2023-02-15T22:01:00.502Z,63.47
2023-02-15T22:03:30.474Z,63.50
2023-02-15T22:05:57.026Z,63.50
2023-02-15T22:08:23.422Z,63.51
2023-02-15T22:10:49.952Z,63.32
2023-02-15T22:13:19.698Z,63.20
2023-02-15T22:15:47.264Z,63.37
2023-02-15T22:18:40.088Z,63.17
2023-02-15T22:21:07.018Z,63.19
2023-02-15T22:23:33.754Z,62.81
2023-02-15T22:26:05.224Z,63.07
2023-02-15T22:28:34.131Z,63.14
2023-02-15T22:31:00.748Z,63.33
2023-02-15T22:33:29.060Z,63.05
2023-02-15T22:35:55.684Z,62.98
2023-02-15T22:38:22.596Z,63.20
2023-02-15T22:40:49.777Z,62.92
2023-02-15T22:43:37.053Z,62.71
2023-02-15T22:46:04.789Z,62.57
2023-02-15T22:48:31.492Z,62.91
2023-02-15T22:50:57.903Z,63.04
2023-02-15T22:53:24.321Z,62.95
2023-02-15T22:55:50.816Z,62.52
2023-02-15T22:58:18.953Z,62.91
2023-02-15T23:00:45.404Z,62.80
2023-02-15T23:03:13.886Z,62.91
2023-02-15T23:05:40.434Z,62.73
2023-02-15T23:08:07.470Z,62.56
2023-02-15T23:10:33.871Z,62.58
2023-02-15T23:13:19.375Z,62.73
2023-02-15T23:15:48.763Z,63.00
2023-02-15T23:18:18.136Z,62.80
2023-02-15T23:20:52.846Z,63.01
2023-02-15T23:23:22.509Z,62.72
2023-02-15T23:25:49.056Z,63.05
2023-02-15T23:28:19.712Z,63.01
2023-02-15T23:30:46.598Z,62.85
2023-02-15T23:33:13.300Z,63.25
2023-02-15T23:35:39.900Z,63.08
2023-02-15T23:38:17.700Z,62.99
2023-02-15T23:41:07.146Z,63.07
2023-02-15T23:43:33.649Z,62.77
2023-02-15T23:46:00.043Z,62.68
2023-02-15T23:48:37.235Z,62.69
2023-02-15T23:51:04.961Z,62.74
2023-02-15T23:53:31.898Z,62.89
2023-02-15T23:55:58.886Z,62.91
2023-02-15T23:58:28.634Z,63.03
